sensor_id;sensor_type;location;lat;lon;timestamp;temperature;humidity
48376;DHT22;34178;50.904;11.560;2024-01-10T00:00:12;-12.70;99.90
48376;DHT22;34178;50.904;11.560;2024-01-10T00:02:37;-12.70;99.90
48376;DHT22;34178;50.904;11.560;2024-01-10T00:05:03;-12.70;99.90
48376;DHT22;34178;50.904;11.560;2024-01-10T00:07:29;-12.70;99.90
48376;DHT22;34178;50.904;11.560;2024-01-10T00:09:54;-12.70;99.90
48376;DHT22;34178;50.904;11.560;2024-01-10T00:12:21;-12.80;99.90
48376;DHT22;34178;50.904;11.560;2024-01-10T00:14:46;-12.70;99.90
48376;DHT22;34178;50.904;11.560;2024-01-10T00:17:12;-12.70;99.90
48376;DHT22;34178;50.904;11.560;2024-01-10T00:19:37;-12.80;99.90
48376;DHT22;34178;50.904;11.560;2024-01-10T00:22:03;-12.70;99.90
48376;DHT22;34178;50.904;11.560;2024-01-10T00:24:28;-12.80;99.90
48376;DHT22;34178;50.904;11.560;2024-01-10T00:26:54;-12.70;99.90
48376;DHT22;34178;50.904;11.560;2024-01-10T00:29:20;-12.70;99.90
48376;DHT22;34178;50.904;11.560;2024-01-10T00:31:46;-12.70;99.90
48376;DHT22;34178;50.904;11.560;2024-01-10T00:34:11;-12.70;99.90
48376;DHT22;34178;50.904;11.560;2024-01-10T00:36:37;-12.70;99.90
48376;DHT22;34178;50.904;11.560;2024-01-10T00:39:03;-12.70;99.90
48376;DHT22;34178;50.904;11.560;2024-01-10T00:41:29;-12.70;99.90
48376;DHT22;34178;50.904;11.560;2024-01-10T00:43:55;-12.70;99.90
48376;DHT22;34178;50.904;11.560;2024-01-10T00:46:20;-12.80;99.90
48376;DHT22;34178;50.904;11.560;2024-01-10T00:48:46;-12.80;99.90
48376;DHT22;34178;50.904;11.560;2024-01-10T00:51:11;-12.70;99.90
48376;DHT22;34178;50.904;11.560;2024-01-10T00:53:37;-12.70;99.90
48376;DHT22;34178;50.904;11.560;2024-01-10T00:56:04;-12.80;99.90
48376;DHT22;34178;50.904;11.560;2024-01-10T00:58:30;-12.80;99.90
48376;DHT22;34178;50.904;11.560;2024-01-10T01:00:55;-12.80;99.90
48376;DHT22;34178;50.904;11.560;2024-01-10T01:03:21;-12.80;99.90
48376;DHT22;34178;50.904;11.560;2024-01-10T01:05:46;-12.80;99.90
48376;DHT22;34178;50.904;11.560;2024-01-10T01:08:12;-12.80;99.90
48376;DHT22;34178;50.904;11.560;2024-01-10T01:10:37;-12.80;99.90
48376;DHT22;34178;50.904;11.560;2024-01-10T01:13:03;-12.80;99.90
48376;DHT22;34178;50.904;11.560;2024-01-10T01:15:28;-12.70;99.90
48376;DHT22;34178;50.904;11.560;2024-01-10T01:17:54;-12.80;99.90
48376;DHT22;34178;50.904;11.560;2024-01-10T01:20:20;-12.70;99.90
48376;DHT22;34178;50.904;11.560;2024-01-10T01:22:45;-12.70;99.90
48376;DHT22;34178;50.904;11.560;2024-01-10T01:25:11;-12.70;99.90
48376;DHT22;34178;50.904;11.560;2024-01-10T01:27:36;-12.70;99.90
48376;DHT22;34178;50.904;11.560;2024-01-10T01:30:02;-12.70;99.90
48376;DHT22;34178;50.904;11.560;2024-01-10T01:32:27;-12.80;99.90
48376;DHT22;34178;50.904;11.560;2024-01-10T01:34:53;-12.70;99.90
48376;DHT22;34178;50.904;11.560;2024-01-10T01:37:19;-12.70;99.90
48376;DHT22;34178;50.904;11.560;2024-01-10T01:39:44;-12.70;99.90
48376;DHT22;34178;50.904;11.560;2024-01-10T01:42:09;-12.70;99.90
48376;DHT22;34178;50.904;11.560;2024-01-10T01:44:35;-12.80;99.90
48376;DHT22;34178;50.904;11.560;2024-01-10T01:47:01;-12.80;99.90
48376;DHT22;34178;50.904;11.560;2024-01-10T01:49:26;-12.80;99.90
48376;DHT22;34178;50.904;11.560;2024-01-10T01:51:52;-12.80;99.90
48376;DHT22;34178;50.904;11.560;2024-01-10T01:54:18;-12.80;99.90
48376;DHT22;34178;50.904;11.560;2024-01-10T01:56:45;-12.80;99.90
48376;DHT22;34178;50.904;11.560;2024-01-10T01:59:11;-12.80;99.90
48376;DHT22;34178;50.904;11.560;2024-01-10T02:01:37;-12.70;99.90
48376;DHT22;34178;50.904;11.560;2024-01-10T02:04:02;-12.70;99.90
48376;DHT22;34178;50.904;11.560;2024-01-10T02:06:28;-12.70;99.90
48376;DHT22;34178;50.904;11.560;2024-01-10T02:08:55;-12.70;99.90
48376;DHT22;34178;50.904;11.560;2024-01-10T02:11:21;-12.80;99.90
48376;DHT22;34178;50.904;11.560;2024-01-10T02:13:48;-12.80;99.90
48376;DHT22;34178;50.904;11.560;2024-01-10T02:16:13;-12.80;99.90
48376;DHT22;34178;50.904;11.560;2024-01-10T02:18:39;-12.80;99.90
48376;DHT22;34178;50.904;11.560;2024-01-10T02:21:05;-12.80;99.90
48376;DHT22;34178;50.904;11.560;2024-01-10T02:23:31;-12.70;99.90
48376;DHT22;34178;50.904;11.560;2024-01-10T02:25:56;-12.80;99.90
48376;DHT22;34178;50.904;11.560;2024-01-10T02:28:22;-12.80;99.90
48376;DHT22;34178;50.904;11.560;2024-01-10T02:30:49;-12.80;99.90
48376;DHT22;34178;50.904;11.560;2024-01-10T02:33:15;-12.80;99.90
48376;DHT22;34178;50.904;11.560;2024-01-10T02:35:40;-12.70;99.90
48376;DHT22;34178;50.904;11.560;2024-01-10T02:38:06;-12.80;99.90
48376;DHT22;34178;50.904;11.560;2024-01-10T02:40:31;-12.80;99.90
48376;DHT22;34178;50.904;11.560;2024-01-10T02:42:57;-12.80;99.90
48376;DHT22;34178;50.904;11.560;2024-01-10T02:45:22;-12.80;99.90
48376;DHT22;34178;50.904;11.560;2024-01-10T02:47:48;-12.90;99.90
48376;DHT22;34178;50.904;11.560;2024-01-10T02:50:13;-12.80;99.90
48376;DHT22;34178;50.904;11.560;2024-01-10T02:52:39;-12.80;99.90
48376;DHT22;34178;50.904;11.560;2024-01-10T02:55:05;-12.80;99.90
48376;DHT22;34178;50.904;11.560;2024-01-10T02:57:30;-12.90;99.90
48376;DHT22;34178;50.904;11.560;2024-01-10T02:59:56;-12.90;99.90
48376;DHT22;34178;50.904;11.560;2024-01-10T03:02:21;-12.90;99.90
48376;DHT22;34178;50.904;11.560;2024-01-10T03:04:48;-12.90;99.90
48376;DHT22;34178;50.904;11.560;2024-01-10T03:07:14;-12.90;99.90
48376;DHT22;34178;50.904;11.560;2024-01-10T03:09:39;-12.90;99.90
48376;DHT22;34178;50.904;11.560;2024-01-10T03:12:05;-12.90;99.90
48376;DHT22;34178;50.904;11.560;2024-01-10T03:14:31;-12.90;99.90
48376;DHT22;34178;50.904;11.560;2024-01-10T03:16:58;-12.90;99.90
48376;DHT22;34178;50.904;11.560;2024-01-10T03:19:23;-12.90;99.90
48376;DHT22;34178;50.904;11.560;2024-01-10T03:21:49;-12.90;99.90
48376;DHT22;34178;50.904;11.560;2024-01-10T03:24:14;-12.80;99.90
48376;DHT22;34178;50.904;11.560;2024-01-10T03:26:40;-12.80;99.90
48376;DHT22;34178;50.904;11.560;2024-01-10T03:29:06;-12.80;99.90
48376;DHT22;34178;50.904;11.560;2024-01-10T03:31:31;-12.80;99.90
48376;DHT22;34178;50.904;11.560;2024-01-10T03:33:57;-12.80;99.90
48376;DHT22;34178;50.904;11.560;2024-01-10T03:36:23;-12.80;99.90
48376;DHT22;34178;50.904;11.560;2024-01-10T03:38:50;-12.80;99.90
48376;DHT22;34178;50.904;11.560;2024-01-10T03:41:16;-12.80;99.90
48376;DHT22;34178;50.904;11.560;2024-01-10T03:43:41;-12.70;99.90
48376;DHT22;34178;50.904;11.560;2024-01-10T03:46:07;-12.70;99.90
48376;DHT22;34178;50.904;11.560;2024-01-10T03:48:33;-12.70;99.90
48376;DHT22;34178;50.904;11.560;2024-01-10T03:50:59;-12.70;99.90
48376;DHT22;34178;50.904;11.560;2024-01-10T03:53:24;-12.80;99.90
48376;DHT22;34178;50.904;11.560;2024-01-10T03:55:50;-12.80;99.90
48376;DHT22;34178;50.904;11.560;2024-01-10T03:58:15;-12.80;99.90
48376;DHT22;34178;50.904;11.560;2024-01-10T04:00:41;-12.80;99.90
48376;DHT22;34178;50.904;11.560;2024-01-10T04:03:06;-12.80;99.90
48376;DHT22;34178;50.904;11.560;2024-01-10T04:05:32;-12.80;99.90
48376;DHT22;34178;50.904;11.560;2024-01-10T04:07:57;-12.80;99.90
48376;DHT22;34178;50.904;11.560;2024-01-10T04:10:23;-12.80;99.90
48376;DHT22;34178;50.904;11.560;2024-01-10T04:12:49;-12.90;99.90
48376;DHT22;34178;50.904;11.560;2024-01-10T04:15:15;-12.90;99.90
48376;DHT22;34178;50.904;11.560;2024-01-10T04:17:40;-12.90;99.90
48376;DHT22;34178;50.904;11.560;2024-01-10T04:20:06;-12.80;99.90
48376;DHT22;34178;50.904;11.560;2024-01-10T04:22:32;-12.80;99.90
48376;DHT22;34178;50.904;11.560;2024-01-10T04:24:58;-12.80;99.90
48376;DHT22;34178;50.904;11.560;2024-01-10T04:27:24;-12.70;99.90
48376;DHT22;34178;50.904;11.560;2024-01-10T04:29:49;-12.70;99.90
48376;DHT22;34178;50.904;11.560;2024-01-10T04:32:15;-12.60;99.90
48376;DHT22;34178;50.904;11.560;2024-01-10T04:34:41;-12.60;99.90
48376;DHT22;34178;50.904;11.560;2024-01-10T04:37:06;-12.70;99.90
48376;DHT22;34178;50.904;11.560;2024-01-10T04:39:33;-12.70;99.90
48376;DHT22;34178;50.904;11.560;2024-01-10T04:41:58;-12.70;99.90
48376;DHT22;34178;50.904;11.560;2024-01-10T04:44:24;-12.70;99.90
48376;DHT22;34178;50.904;11.560;2024-01-10T04:46:50;-12.70;99.90
48376;DHT22;34178;50.904;11.560;2024-01-10T04:49:15;-12.70;99.90
48376;DHT22;34178;50.904;11.560;2024-01-10T04:51:41;-12.60;99.90
48376;DHT22;34178;50.904;11.560;2024-01-10T04:54:06;-12.60;99.90
48376;DHT22;34178;50.904;11.560;2024-01-10T04:56:32;-12.50;99.90
48376;DHT22;34178;50.904;11.560;2024-01-10T04:58:58;-12.40;99.90
48376;DHT22;34178;50.904;11.560;2024-01-10T05:01:23;-12.30;99.90
48376;DHT22;34178;50.904;11.560;2024-01-10T05:03:49;-12.10;99.90
48376;DHT22;34178;50.904;11.560;2024-01-10T05:06:14;-12.10;99.90
48376;DHT22;34178;50.904;11.560;2024-01-10T05:08:40;-12.00;99.90
48376;DHT22;34178;50.904;11.560;2024-01-10T05:11:05;-11.90;99.90
48376;DHT22;34178;50.904;11.560;2024-01-10T05:13:31;-11.90;99.90
48376;DHT22;34178;50.904;11.560;2024-01-10T05:15:56;-11.80;99.90
48376;DHT22;34178;50.904;11.560;2024-01-10T05:18:22;-11.80;99.90
48376;DHT22;34178;50.904;11.560;2024-01-10T05:20:47;-11.80;99.90
48376;DHT22;34178;50.904;11.560;2024-01-10T05:23:13;-11.80;99.90
48376;DHT22;34178;50.904;11.560;2024-01-10T05:25:39;-11.70;99.90
48376;DHT22;34178;50.904;11.560;2024-01-10T05:28:04;-11.60;99.90
48376;DHT22;34178;50.904;11.560;2024-01-10T05:30:30;-11.60;99.90
48376;DHT22;34178;50.904;11.560;2024-01-10T05:32:57;-11.60;99.90
48376;DHT22;34178;50.904;11.560;2024-01-10T05:35:24;-11.50;99.90
48376;DHT22;34178;50.904;11.560;2024-01-10T05:37:51;-11.50;99.90
48376;DHT22;34178;50.904;11.560;2024-01-10T05:40:17;-11.40;99.90
48376;DHT22;34178;50.904;11.560;2024-01-10T05:42:44;-11.40;99.90
48376;DHT22;34178;50.904;11.560;2024-01-10T05:45:09;-11.40;99.90
48376;DHT22;34178;50.904;11.560;2024-01-10T05:47:35;-11.40;99.90
48376;DHT22;34178;50.904;11.560;2024-01-10T05:50:00;-11.30;99.90
48376;DHT22;34178;50.904;11.560;2024-01-10T05:52:26;-11.30;99.90
48376;DHT22;34178;50.904;11.560;2024-01-10T05:54:52;-11.20;99.90
48376;DHT22;34178;50.904;11.560;2024-01-10T05:57:18;-11.20;99.90
48376;DHT22;34178;50.904;11.560;2024-01-10T05:59:44;-11.20;99.90
48376;DHT22;34178;50.904;11.560;2024-01-10T06:02:09;-11.20;99.90
48376;DHT22;34178;50.904;11.560;2024-01-10T06:04:35;-11.20;99.90
48376;DHT22;34178;50.904;11.560;2024-01-10T06:07:00;-11.20;99.90
48376;DHT22;34178;50.904;11.560;2024-01-10T06:09:26;-11.10;99.90
48376;DHT22;34178;50.904;11.560;2024-01-10T06:11:52;-11.10;99.90
48376;DHT22;34178;50.904;11.560;2024-01-10T06:14:17;-11.10;99.90
48376;DHT22;34178;50.904;11.560;2024-01-10T06:16:43;-11.00;99.90
48376;DHT22;34178;50.904;11.560;2024-01-10T06:19:10;-11.00;99.90
48376;DHT22;34178;50.904;11.560;2024-01-10T06:21:36;-10.90;99.90
48376;DHT22;34178;50.904;11.560;2024-01-10T06:24:02;-10.80;99.90
48376;DHT22;34178;50.904;11.560;2024-01-10T06:26:27;-10.80;99.90
48376;DHT22;34178;50.904;11.560;2024-01-10T06:28:53;-10.70;99.90
48376;DHT22;34178;50.904;11.560;2024-01-10T06:31:19;-10.70;99.90
48376;DHT22;34178;50.904;11.560;2024-01-10T06:33:45;-10.70;99.90
48376;DHT22;34178;50.904;11.560;2024-01-10T06:36:11;-10.70;99.90
48376;DHT22;34178;50.904;11.560;2024-01-10T06:38:38;-10.70;99.90
48376;DHT22;34178;50.904;11.560;2024-01-10T06:41:07;-10.60;99.90
48376;DHT22;34178;50.904;11.560;2024-01-10T06:43:32;-10.60;99.90
48376;DHT22;34178;50.904;11.560;2024-01-10T06:45:59;-10.60;99.90
48376;DHT22;34178;50.904;11.560;2024-01-10T06:48:25;-10.60;99.90
48376;DHT22;34178;50.904;11.560;2024-01-10T06:50:51;-10.60;99.90
48376;DHT22;34178;50.904;11.560;2024-01-10T06:53:18;-10.50;99.90
48376;DHT22;34178;50.904;11.560;2024-01-10T06:55:43;-10.50;99.90
48376;DHT22;34178;50.904;11.560;2024-01-10T06:58:09;-10.50;99.90
48376;DHT22;34178;50.904;11.560;2024-01-10T07:00:34;-10.40;99.90
48376;DHT22;34178;50.904;11.560;2024-01-10T07:03:03;-10.40;99.90
48376;DHT22;34178;50.904;11.560;2024-01-10T07:05:29;-10.40;99.90
48376;DHT22;34178;50.904;11.560;2024-01-10T07:08:00;-10.30;99.90
48376;DHT22;34178;50.904;11.560;2024-01-10T07:10:28;-10.30;99.90
48376;DHT22;34178;50.904;11.560;2024-01-10T07:12:54;-10.20;99.90
48376;DHT22;34178;50.904;11.560;2024-01-10T07:15:20;-10.20;99.90
48376;DHT22;34178;50.904;11.560;2024-01-10T07:17:45;-10.20;99.90
48376;DHT22;34178;50.904;11.560;2024-01-10T07:20:11;-10.20;99.90
48376;DHT22;34178;50.904;11.560;2024-01-10T07:22:37;-10.10;99.90
48376;DHT22;34178;50.904;11.560;2024-01-10T07:25:15;-10.10;99.90
48376;DHT22;34178;50.904;11.560;2024-01-10T07:27:41;-10.10;99.90
48376;DHT22;34178;50.904;11.560;2024-01-10T07:30:06;-10.10;99.90
48376;DHT22;34178;50.904;11.560;2024-01-10T07:32:42;-10.10;99.90
48376;DHT22;34178;50.904;11.560;2024-01-10T07:35:08;-10.10;99.90
48376;DHT22;34178;50.904;11.560;2024-01-10T07:37:40;-10.10;99.90
48376;DHT22;34178;50.904;11.560;2024-01-10T07:40:06;-10.10;99.90
48376;DHT22;34178;50.904;11.560;2024-01-10T07:42:35;-10.10;99.90
48376;DHT22;34178;50.904;11.560;2024-01-10T07:45:01;-10.10;99.90
48376;DHT22;34178;50.904;11.560;2024-01-10T07:47:33;-10.00;99.90
48376;DHT22;34178;50.904;11.560;2024-01-10T07:50:08;-10.00;99.90
48376;DHT22;34178;50.904;11.560;2024-01-10T07:52:34;-9.90;99.90
48376;DHT22;34178;50.904;11.560;2024-01-10T07:54:59;-9.90;99.90
48376;DHT22;34178;50.904;11.560;2024-01-10T07:57:25;-9.80;99.90
48376;DHT22;34178;50.904;11.560;2024-01-10T07:59:52;-9.80;99.90
48376;DHT22;34178;50.904;11.560;2024-01-10T08:02:18;-9.70;99.90
48376;DHT22;34178;50.904;11.560;2024-01-10T08:04:43;-9.80;99.90
48376;DHT22;34178;50.904;11.560;2024-01-10T08:07:09;-9.80;99.90
48376;DHT22;34178;50.904;11.560;2024-01-10T08:09:35;-9.90;99.90
48376;DHT22;34178;50.904;11.560;2024-01-10T08:12:02;-9.80;99.90
48376;DHT22;34178;50.904;11.560;2024-01-10T08:14:27;-9.70;99.90
48376;DHT22;34178;50.904;11.560;2024-01-10T08:16:53;-9.70;99.90
48376;DHT22;34178;50.904;11.560;2024-01-10T08:19:20;-9.60;99.90
48376;DHT22;34178;50.904;11.560;2024-01-10T08:21:45;-9.60;99.90
48376;DHT22;34178;50.904;11.560;2024-01-10T08:24:11;-9.60;99.90
48376;DHT22;34178;50.904;11.560;2024-01-10T08:26:36;-9.60;99.90
48376;DHT22;34178;50.904;11.560;2024-01-10T08:29:03;-9.60;99.90
48376;DHT22;34178;50.904;11.560;2024-01-10T08:31:29;-9.60;99.90
48376;DHT22;34178;50.904;11.560;2024-01-10T08:33:55;-9.60;99.90
48376;DHT22;34178;50.904;11.560;2024-01-10T08:36:22;-9.50;99.90
48376;DHT22;34178;50.904;11.560;2024-01-10T08:38:49;-9.50;99.90
48376;DHT22;34178;50.904;11.560;2024-01-10T08:41:15;-9.50;99.90
48376;DHT22;34178;50.904;11.560;2024-01-10T08:43:41;-9.40;99.90
48376;DHT22;34178;50.904;11.560;2024-01-10T08:46:08;-9.30;99.90
48376;DHT22;34178;50.904;11.560;2024-01-10T08:48:33;-9.30;99.90
48376;DHT22;34178;50.904;11.560;2024-01-10T08:50:59;-9.20;99.90
48376;DHT22;34178;50.904;11.560;2024-01-10T08:53:24;-9.20;99.90
48376;DHT22;34178;50.904;11.560;2024-01-10T08:55:50;-9.20;99.90
48376;DHT22;34178;50.904;11.560;2024-01-10T08:58:15;-9.10;99.90
48376;DHT22;34178;50.904;11.560;2024-01-10T09:00:41;-9.10;99.90
48376;DHT22;34178;50.904;11.560;2024-01-10T09:03:06;-9.10;99.90
48376;DHT22;34178;50.904;11.560;2024-01-10T09:05:32;-9.00;99.90
48376;DHT22;34178;50.904;11.560;2024-01-10T09:07:58;-9.00;99.90
48376;DHT22;34178;50.904;11.560;2024-01-10T09:10:23;-9.00;99.90
48376;DHT22;34178;50.904;11.560;2024-01-10T09:12:53;-9.00;99.90
48376;DHT22;34178;50.904;11.560;2024-01-10T09:15:19;-9.00;99.90
48376;DHT22;34178;50.904;11.560;2024-01-10T09:17:44;-8.90;99.90
48376;DHT22;34178;50.904;11.560;2024-01-10T09:20:10;-8.90;99.90
48376;DHT22;34178;50.904;11.560;2024-01-10T09:22:37;-9.00;99.90
48376;DHT22;34178;50.904;11.560;2024-01-10T09:25:03;-9.00;99.90
48376;DHT22;34178;50.904;11.560;2024-01-10T09:27:31;-9.10;99.90
48376;DHT22;34178;50.904;11.560;2024-01-10T09:29:57;-9.20;99.90
48376;DHT22;34178;50.904;11.560;2024-01-10T09:32:22;-9.20;99.90
48376;DHT22;34178;50.904;11.560;2024-01-10T09:34:50;-9.20;99.90
48376;DHT22;34178;50.904;11.560;2024-01-10T09:37:15;-9.10;99.90
48376;DHT22;34178;50.904;11.560;2024-01-10T09:39:41;-9.10;99.90
48376;DHT22;34178;50.904;11.560;2024-01-10T09:42:06;-9.10;99.90
48376;DHT22;34178;50.904;11.560;2024-01-10T09:44:32;-9.10;99.90
48376;DHT22;34178;50.904;11.560;2024-01-10T09:46:58;-9.10;99.90
48376;DHT22;34178;50.904;11.560;2024-01-10T09:49:26;-9.10;99.90
48376;DHT22;34178;50.904;11.560;2024-01-10T09:51:53;-9.10;99.90
48376;DHT22;34178;50.904;11.560;2024-01-10T09:54:22;-9.00;99.90
48376;DHT22;34178;50.904;11.560;2024-01-10T09:56:49;-9.00;99.90
48376;DHT22;34178;50.904;11.560;2024-01-10T09:59:15;-8.90;99.90
48376;DHT22;34178;50.904;11.560;2024-01-10T10:01:40;-8.80;99.90
48376;DHT22;34178;50.904;11.560;2024-01-10T10:04:06;-8.70;99.90
48376;DHT22;34178;50.904;11.560;2024-01-10T10:06:33;-8.70;99.90
48376;DHT22;34178;50.904;11.560;2024-01-10T10:08:59;-8.60;99.90
48376;DHT22;34178;50.904;11.560;2024-01-10T10:11:25;-8.50;99.90
48376;DHT22;34178;50.904;11.560;2024-01-10T10:13:50;-8.50;99.90
48376;DHT22;34178;50.904;11.560;2024-01-10T10:16:22;-8.40;99.90
48376;DHT22;34178;50.904;11.560;2024-01-10T10:18:48;-8.30;99.90
48376;DHT22;34178;50.904;11.560;2024-01-10T10:21:15;-8.20;99.90
48376;DHT22;34178;50.904;11.560;2024-01-10T10:23:42;-8.10;99.90
48376;DHT22;34178;50.904;11.560;2024-01-10T10:26:12;-8.10;99.90
48376;DHT22;34178;50.904;11.560;2024-01-10T10:28:40;-8.00;99.90
48376;DHT22;34178;50.904;11.560;2024-01-10T10:31:05;-8.00;99.90
48376;DHT22;34178;50.904;11.560;2024-01-10T10:33:32;-7.90;99.90
48376;DHT22;34178;50.904;11.560;2024-01-10T10:35:57;-7.90;99.90
48376;DHT22;34178;50.904;11.560;2024-01-10T10:38:23;-7.90;99.90
48376;DHT22;34178;50.904;11.560;2024-01-10T10:40:49;-7.80;99.90
48376;DHT22;34178;50.904;11.560;2024-01-10T10:43:15;-7.80;99.90
48376;DHT22;34178;50.904;11.560;2024-01-10T10:45:49;-7.70;99.90
48376;DHT22;34178;50.904;11.560;2024-01-10T10:48:16;-7.70;99.90
48376;DHT22;34178;50.904;11.560;2024-01-10T10:50:42;-7.60;99.90
48376;DHT22;34178;50.904;11.560;2024-01-10T10:53:11;-7.50;99.90
48376;DHT22;34178;50.904;11.560;2024-01-10T10:55:37;-7.40;99.90
48376;DHT22;34178;50.904;11.560;2024-01-10T10:58:04;-7.30;99.90
48376;DHT22;34178;50.904;11.560;2024-01-10T11:00:30;-7.30;99.90
48376;DHT22;34178;50.904;11.560;2024-01-10T11:02:56;-7.20;99.90
48376;DHT22;34178;50.904;11.560;2024-01-10T11:05:25;-7.10;99.90
48376;DHT22;34178;50.904;11.560;2024-01-10T11:07:51;-7.10;99.90
48376;DHT22;34178;50.904;11.560;2024-01-10T11:10:29;-7.10;99.90
48376;DHT22;34178;50.904;11.560;2024-01-10T11:18:36;-6.80;99.90
48376;DHT22;34178;50.904;11.560;2024-01-10T11:21:10;-6.70;99.90
48376;DHT22;34178;50.904;11.560;2024-01-10T11:23:49;-6.60;99.90
48376;DHT22;34178;50.904;11.560;2024-01-10T11:26:15;-6.10;99.90
48376;DHT22;34178;50.904;11.560;2024-01-10T11:28:41;-5.00;99.90
48376;DHT22;34178;50.904;11.560;2024-01-10T11:31:07;-4.10;99.90
48376;DHT22;34178;50.904;11.560;2024-01-10T11:33:39;-3.20;99.90
48376;DHT22;34178;50.904;11.560;2024-01-10T11:36:15;-2.50;99.90
48376;DHT22;34178;50.904;11.560;2024-01-10T11:41:10;-1.60;99.00
48376;DHT22;34178;50.904;11.560;2024-01-10T11:43:36;-1.30;98.20
48376;DHT22;34178;50.904;11.560;2024-01-10T11:46:02;-1.00;97.60
48376;DHT22;34178;50.904;11.560;2024-01-10T11:48:33;-0.90;97.30
48376;DHT22;34178;50.904;11.560;2024-01-10T11:50:58;-0.60;97.20
48376;DHT22;34178;50.904;11.560;2024-01-10T11:56:08;-0.30;96.50
48376;DHT22;34178;50.904;11.560;2024-01-10T11:58:51;-0.10;96.20
48376;DHT22;34178;50.904;11.560;2024-01-10T12:01:17;0.00;95.80
48376;DHT22;34178;50.904;11.560;2024-01-10T12:03:43;0.00;95.60
48376;DHT22;34178;50.904;11.560;2024-01-10T12:06:09;0.00;95.60
48376;DHT22;34178;50.904;11.560;2024-01-10T12:08:35;0.00;95.50
48376;DHT22;34178;50.904;11.560;2024-01-10T12:11:00;-0.30;95.30
48376;DHT22;34178;50.904;11.560;2024-01-10T12:13:26;-1.20;96.10
48376;DHT22;34178;50.904;11.560;2024-01-10T12:15:52;-2.30;97.50
48376;DHT22;34178;50.904;11.560;2024-01-10T12:18:18;-3.10;99.10
48376;DHT22;34178;50.904;11.560;2024-01-10T12:20:44;-3.70;99.90
48376;DHT22;34178;50.904;11.560;2024-01-10T12:23:10;-4.10;99.90
48376;DHT22;34178;50.904;11.560;2024-01-10T12:25:36;-4.50;99.90
48376;DHT22;34178;50.904;11.560;2024-01-10T12:28:02;-4.80;99.90
48376;DHT22;34178;50.904;11.560;2024-01-10T12:30:28;-4.90;99.90
48376;DHT22;34178;50.904;11.560;2024-01-10T12:32:54;-5.00;99.90
48376;DHT22;34178;50.904;11.560;2024-01-10T12:35:19;-5.10;99.90
48376;DHT22;34178;50.904;11.560;2024-01-10T12:37:53;-5.10;99.90
48376;DHT22;34178;50.904;11.560;2024-01-10T12:40:20;-5.20;99.90
48376;DHT22;34178;50.904;11.560;2024-01-10T12:42:46;-5.30;99.90
48376;DHT22;34178;50.904;11.560;2024-01-10T12:45:21;-5.40;99.90
48376;DHT22;34178;50.904;11.560;2024-01-10T12:47:47;-5.30;99.90
48376;DHT22;34178;50.904;11.560;2024-01-10T12:50:12;-5.20;99.90
48376;DHT22;34178;50.904;11.560;2024-01-10T12:52:40;-5.20;99.90
48376;DHT22;34178;50.904;11.560;2024-01-10T12:55:07;-5.10;99.90
48376;DHT22;34178;50.904;11.560;2024-01-10T12:57:33;-5.10;99.90
48376;DHT22;34178;50.904;11.560;2024-01-10T12:59:59;-5.10;99.90
48376;DHT22;34178;50.904;11.560;2024-01-10T13:02:24;-5.00;99.90
48376;DHT22;34178;50.904;11.560;2024-01-10T13:04:50;-5.00;99.90
48376;DHT22;34178;50.904;11.560;2024-01-10T13:07:15;-5.00;99.90
48376;DHT22;34178;50.904;11.560;2024-01-10T13:09:41;-5.00;99.90
48376;DHT22;34178;50.904;11.560;2024-01-10T13:12:07;-5.20;99.90
48376;DHT22;34178;50.904;11.560;2024-01-10T13:14:33;-5.20;99.90
48376;DHT22;34178;50.904;11.560;2024-01-10T13:16:59;-5.20;99.90
48376;DHT22;34178;50.904;11.560;2024-01-10T13:19:24;-5.10;99.90
48376;DHT22;34178;50.904;11.560;2024-01-10T13:21:51;-5.10;99.90
48376;DHT22;34178;50.904;11.560;2024-01-10T13:24:18;-5.20;99.90
48376;DHT22;34178;50.904;11.560;2024-01-10T13:26:44;-5.30;99.90
48376;DHT22;34178;50.904;11.560;2024-01-10T13:29:10;-5.20;99.90
48376;DHT22;34178;50.904;11.560;2024-01-10T13:31:35;-5.20;99.90
48376;DHT22;34178;50.904;11.560;2024-01-10T13:34:01;-5.10;99.90
48376;DHT22;34178;50.904;11.560;2024-01-10T13:36:28;-5.10;99.90
48376;DHT22;34178;50.904;11.560;2024-01-10T13:38:55;-5.10;99.90
48376;DHT22;34178;50.904;11.560;2024-01-10T13:41:21;-5.20;99.90
48376;DHT22;34178;50.904;11.560;2024-01-10T13:43:47;-5.10;99.90
48376;DHT22;34178;50.904;11.560;2024-01-10T13:46:12;-5.20;99.90
48376;DHT22;34178;50.904;11.560;2024-01-10T13:48:38;-5.10;99.90
48376;DHT22;34178;50.904;11.560;2024-01-10T13:51:03;-5.20;99.90
48376;DHT22;34178;50.904;11.560;2024-01-10T13:53:29;-5.20;99.90
48376;DHT22;34178;50.904;11.560;2024-01-10T13:55:54;-5.10;99.90
48376;DHT22;34178;50.904;11.560;2024-01-10T13:58:20;-5.10;99.90
48376;DHT22;34178;50.904;11.560;2024-01-10T14:00:49;-5.10;99.90
48376;DHT22;34178;50.904;11.560;2024-01-10T14:03:14;-5.10;99.90
48376;DHT22;34178;50.904;11.560;2024-01-10T14:05:41;-5.10;99.90
48376;DHT22;34178;50.904;11.560;2024-01-10T14:08:06;-5.10;99.90
48376;DHT22;34178;50.904;11.560;2024-01-10T14:10:33;-5.20;99.90
48376;DHT22;34178;50.904;11.560;2024-01-10T14:12:59;-5.20;99.90
48376;DHT22;34178;50.904;11.560;2024-01-10T14:15:25;-5.30;99.90
48376;DHT22;34178;50.904;11.560;2024-01-10T14:17:51;-5.30;99.90
48376;DHT22;34178;50.904;11.560;2024-01-10T14:20:16;-5.40;99.90
48376;DHT22;34178;50.904;11.560;2024-01-10T14:22:42;-5.40;99.90
48376;DHT22;34178;50.904;11.560;2024-01-10T14:25:08;-5.40;99.90
48376;DHT22;34178;50.904;11.560;2024-01-10T14:27:34;-5.40;99.90
48376;DHT22;34178;50.904;11.560;2024-01-10T14:30:00;-5.40;99.90
48376;DHT22;34178;50.904;11.560;2024-01-10T14:32:28;-5.50;99.90
48376;DHT22;34178;50.904;11.560;2024-01-10T14:34:54;-5.50;99.90
48376;DHT22;34178;50.904;11.560;2024-01-10T14:37:20;-5.60;99.90
48376;DHT22;34178;50.904;11.560;2024-01-10T14:39:46;-5.60;99.90
48376;DHT22;34178;50.904;11.560;2024-01-10T14:42:11;-5.70;99.90
48376;DHT22;34178;50.904;11.560;2024-01-10T14:44:38;-5.70;99.90
48376;DHT22;34178;50.904;11.560;2024-01-10T14:47:05;-5.80;99.90
48376;DHT22;34178;50.904;11.560;2024-01-10T14:49:31;-5.80;99.90
48376;DHT22;34178;50.904;11.560;2024-01-10T14:51:57;-5.80;99.90
48376;DHT22;34178;50.904;11.560;2024-01-10T14:54:23;-5.90;99.90
48376;DHT22;34178;50.904;11.560;2024-01-10T14:56:49;-6.00;99.90
48376;DHT22;34178;50.904;11.560;2024-01-10T14:59:14;-6.00;99.90
48376;DHT22;34178;50.904;11.560;2024-01-10T15:01:47;-6.10;99.90
48376;DHT22;34178;50.904;11.560;2024-01-10T15:04:12;-6.10;99.90
48376;DHT22;34178;50.904;11.560;2024-01-10T15:06:45;-6.20;99.90
48376;DHT22;34178;50.904;11.560;2024-01-10T15:09:10;-6.20;99.90
48376;DHT22;34178;50.904;11.560;2024-01-10T15:11:38;-6.30;99.90